Time;durP1;ratioP1;P1;durP2;ratioP2;P2;SDS_P1;SDS_P2;PMS_P1;PMS_P2;Temp;Humidity;BMP_temperature;BMP_pressure;BME280_temperature;BME280_humidity;BME280_pressure;Samples;Min_cycle;Max_cycle;Signal;HPM_P1;HPM_P2
2022/04/03 00:00:35;;;;;;;15.17;13.20;;;;;;;0.32;nan;98179.19;5036815;28;20435;-68
2022/04/03 00:03:04;;;;;;;14.67;13.17;;;;;;;0.31;nan;98179.34;5036438;28;20561;-69
2022/04/03 00:05:35;;;;;;;14.10;12.63;;;;;;;0.35;nan;98182.50;5036453;28;20832;-68
2022/04/03 00:08:01;;;;;;;14.90;12.33;;;;;;;0.30;nan;98185.53;5036964;28;20467;-69
2022/04/03 00:10:28;;;;;;;14.13;12.63;;;;;;;0.32;nan;98185.41;5036703;28;20454;-68
2022/04/03 00:12:54;;;;;;;15.27;13.70;;;;;;;0.28;nan;98190.91;5036715;28;20441;-69
2022/04/03 00:15:20;;;;;;;16.30;13.73;;;;;;;0.30;nan;98185.53;5036226;28;20443;-68
2022/04/03 00:17:47;;;;;;;15.60;13.10;;;;;;;0.35;nan;98187.72;5036507;28;20533;-69
2022/04/03 00:20:14;;;;;;;17.93;13.90;;;;;;;0.27;nan;98188.44;5036506;28;20439;-69
2022/04/03 00:22:42;;;;;;;15.97;13.80;;;;;;;0.33;nan;98186.06;5036026;28;20530;-69
2022/04/03 00:25:11;;;;;;;16.73;13.27;;;;;;;0.46;nan;98185.69;5036135;28;21036;-69
2022/04/03 00:27:38;;;;;;;15.30;13.70;;;;;;;0.29;nan;98181.28;5035989;28;20562;-69
2022/04/03 00:30:04;;;;;;;15.97;13.50;;;;;;;0.38;nan;98183.81;5036311;28;20434;-69
2022/04/03 00:32:31;;;;;;;15.23;13.63;;;;;;;0.33;nan;98185.25;5036338;28;20453;-69
2022/04/03 00:34:57;;;;;;;15.27;13.60;;;;;;;0.42;nan;98188.72;5036193;28;20450;-68
2022/04/03 00:37:23;;;;;;;15.13;13.57;;;;;;;0.35;nan;98192.94;5036077;28;20496;-69
2022/04/03 00:39:50;;;;;;;15.90;14.07;;;;;;;0.35;nan;98185.09;5036160;28;20441;-69
2022/04/03 00:42:16;;;;;;;17.57;14.63;;;;;;;0.32;nan;98187.03;5036030;28;20446;-69
2022/04/03 00:44:43;;;;;;;16.03;14.03;;;;;;;0.38;nan;98184.78;5034741;28;20483;-69
2022/04/03 00:47:10;;;;;;;16.87;14.67;;;;;;;0.30;nan;98185.53;5035960;28;20225;-69
2022/04/03 00:49:37;;;;;;;14.03;12.03;;;;;;;0.46;nan;98185.69;5035951;28;20450;-69
2022/04/03 00:52:03;;;;;;;14.57;12.17;;;;;;;0.40;nan;98186.28;5035597;28;20439;-68
2022/04/03 00:54:30;;;;;;;14.70;11.80;;;;;;;0.32;nan;98190.63;5035927;28;20209;-68
2022/04/03 00:56:56;;;;;;;13.93;12.50;;;;;;;0.45;nan;98189.25;5035268;28;20475;-69
2022/04/03 00:59:23;;;;;;;16.23;12.97;;;;;;;0.50;nan;98199.25;5035764;28;20522;-68
2022/04/03 01:01:49;;;;;;;14.87;12.73;;;;;;;0.47;nan;98191.72;5035304;28;20571;-68
2022/04/03 01:04:17;;;;;;;17.23;13.73;;;;;;;0.45;nan;98201.53;5034664;28;21019;-69
2022/04/03 01:06:43;;;;;;;15.70;14.10;;;;;;;0.35;nan;98192.94;5035517;28;20463;-68
2022/04/03 01:09:10;;;;;;;14.97;13.33;;;;;;;0.49;nan;98201.03;5035264;28;20962;-68
2022/04/03 01:11:38;;;;;;;18.00;14.27;;;;;;;0.33;nan;98193.91;5035542;28;20441;-69
2022/04/03 01:14:05;;;;;;;15.67;13.67;;;;;;;0.32;nan;98198.47;5035507;28;20450;-69
2022/04/03 01:16:32;;;;;;;15.93;14.20;;;;;;;0.47;nan;98195.97;5035371;28;20468;-68
2022/04/03 01:18:59;;;;;;;16.47;14.03;;;;;;;0.51;nan;98199.13;5035449;28;20431;-69
2022/04/03 01:21:25;;;;;;;17.93;15.53;;;;;;;0.32;nan;98195.84;5035382;28;20509;-69
2022/04/03 01:23:54;;;;;;;18.60;15.93;;;;;;;0.24;nan;98191.38;5035150;28;20489;-68
2022/04/03 01:26:21;;;;;;;18.80;15.83;;;;;;;0.28;nan;98191.91;5034872;28;20980;-69
2022/04/03 01:28:47;;;;;;;20.40;16.30;;;;;;;0.21;nan;98198.72;5034898;28;20443;-69
2022/04/03 01:31:14;;;;;;;17.37;14.73;;;;;;;0.26;nan;98193.84;5035709;28;20446;-69
2022/04/03 01:33:40;;;;;;;18.93;15.50;;;;;;;0.20;nan;98190.03;5034763;28;20453;-69
2022/04/03 01:36:06;;;;;;;17.33;15.20;;;;;;;0.21;nan;98198.72;5034698;28;20435;-69
2022/04/03 01:38:33;;;;;;;16.63;14.30;;;;;;;0.22;nan;98204.59;5034712;28;20459;-69
2022/04/03 01:40:59;;;;;;;18.03;14.67;;;;;;;0.21;nan;98199.53;5034917;28;20458;-68
2022/04/03 01:43:25;;;;;;;16.63;14.83;;;;;;;0.21;nan;98201.34;5034822;28;20478;-69
2022/04/03 01:45:52;;;;;;;15.27;13.67;;;;;;;0.28;nan;98201.38;5034934;28;20446;-69
2022/04/03 01:48:19;;;;;;;17.17;15.37;;;;;;;0.26;nan;98204.31;5034584;28;20467;-69
2022/04/03 01:50:45;;;;;;;16.33;13.83;;;;;;;0.35;nan;98203.41;5034797;28;20489;-69
2022/04/03 01:53:12;;;;;;;18.70;13.67;;;;;;;0.22;nan;98204.59;5034746;28;20447;-69
2022/04/03 01:55:40;;;;;;;16.27;14.37;;;;;;;0.21;nan;98198.72;5034723;28;20435;-69
2022/04/03 01:58:08;;;;;;;16.37;14.37;;;;;;;0.18;nan;98207.66;5034130;28;20529;-69
2022/04/03 02:00:35;;;;;;;17.27;13.90;;;;;;;0.19;nan;98204.91;5034635;28;20443;-69
2022/04/03 02:03:01;;;;;;;15.60;13.13;;;;;;;0.19;nan;98204.91;5034534;28;20561;-69
2022/04/03 02:05:27;;;;;;;16.60;14.40;;;;;;;0.22;nan;98200.34;5034567;28;20441;-69
2022/04/03 02:07:54;;;;;;;16.80;13.73;;;;;;;0.18;nan;98207.66;5034424;28;20467;-69
2022/04/03 02:10:20;;;;;;;17.63;14.20;;;;;;;0.32;nan;98209.75;5034377;28;20446;-69
2022/04/03 02:12:47;;;;;;;17.07;13.37;;;;;;;0.32;nan;98211.53;5033942;28;20447;-68
2022/04/03 02:15:15;;;;;;;17.73;15.53;;;;;;;0.30;nan;98216.91;5034247;28;20443;-69
2022/04/03 02:17:41;;;;;;;17.00;15.20;;;;;;;0.26;nan;98212.97;5034271;28;20529;-69
2022/04/03 02:20:09;;;;;;;16.00;14.30;;;;;;;0.19;nan;98211.94;5034304;28;20461;-69
2022/04/03 02:22:36;;;;;;;20.93;15.30;;;;;;;0.21;nan;98206.56;5033981;28;20210;-69
2022/04/03 02:25:04;;;;;;;16.10;14.33;;;;;;;0.32;nan;98212.38;5034127;28;20478;-69
2022/04/03 02:27:31;;;;;;;17.10;15.37;;;;;;;0.30;nan;98213.50;5033814;28;20474;-69
2022/04/03 02:29:58;;;;;;;16.53;14.80;;;;;;;0.24;nan;98217.53;5034144;28;20439;-69
2022/04/03 02:32:25;;;;;;;18.27;13.67;;;;;;;0.22;nan;98214.22;5034068;28;20439;-69
2022/04/03 02:34:51;;;;;;;15.87;14.03;;;;;;;0.21;nan;98209.19;5033626;28;21101;-69
2022/04/03 02:37:18;;;;;;;19.57;15.53;;;;;;;0.17;nan;98225.16;5033888;28;20463;-69
2022/04/03 02:39:45;;;;;;;16.97;14.20;;;;;;;0.24;nan;98220.16;5033611;28;20443;-69
2022/04/03 02:42:11;;;;;;;16.33;14.17;;;;;;;0.22;nan;98216.03;5034352;28;20451;-69
2022/04/03 02:44:38;;;;;;;15.57;13.87;;;;;;;0.23;nan;98219.31;5033707;28;20489;-69
2022/04/03 02:47:04;;;;;;;15.67;13.97;;;;;;;0.22;nan;98220.28;5033669;28;20471;-69
2022/04/03 02:49:31;;;;;;;15.33;13.73;;;;;;;0.21;nan;98223.06;5033348;28;20822;-69
2022/04/03 02:51:57;;;;;;;16.03;13.63;;;;;;;0.25;nan;98232.25;5033754;28;20457;-69
2022/04/03 02:54:23;;;;;;;17.17;14.73;;;;;;;0.28;nan;98227.53;5033682;28;20450;-69
2022/04/03 02:56:50;;;;;;;14.67;12.67;;;;;;;0.20;nan;98229.25;5033273;28;20477;-69
2022/04/03 02:59:16;;;;;;;15.93;14.00;;;;;;;0.23;nan;98231.59;5033648;28;20557;-69
2022/04/03 03:01:43;;;;;;;15.23;13.00;;;;;;;0.24;nan;98230.59;5033562;28;20806;-69
2022/04/03 03:04:09;;;;;;;14.97;12.27;;;;;;;0.22;nan;98235.97;5033122;28;20479;-69
2022/04/03 03:06:36;;;;;;;13.67;12.27;;;;;;;0.30;nan;98226.56;5033270;28;20961;-69
2022/04/03 03:09:02;;;;;;;16.47;13.67;;;;;;;0.26;nan;98220.81;5033163;28;20451;-69
2022/04/03 03:11:29;;;;;;;15.13;13.63;;;;;;;0.30;nan;98218.72;5033630;28;20439;-69
2022/04/03 03:13:56;;;;;;;15.70;12.57;;;;;;;0.33;nan;98219.25;5033422;28;20443;-68
2022/04/03 03:16:22;;;;;;;13.57;12.10;;;;;;;0.28;nan;98213.66;5033292;28;20443;-69
2022/04/03 03:18:48;;;;;;;16.03;13.10;;;;;;;0.32;nan;98223.63;5033843;28;20438;-69
2022/04/03 03:21:15;;;;;;;12.80;11.33;;;;;;;0.35;nan;98219.09;5033407;28;20443;-69
2022/04/03 03:23:42;;;;;;;13.50;12.13;;;;;;;0.29;nan;98217.91;5032934;28;20886;-68
2022/04/03 03:26:09;;;;;;;13.27;11.87;;;;;;;0.46;nan;98222.28;5034454;28;20205;-69
2022/04/03 03:28:36;;;;;;;13.13;11.73;;;;;;;0.28;nan;98222.28;5037493;28;20445;-69
2022/04/03 03:31:02;;;;;;;13.77;12.17;;;;;;;0.39;nan;98223.84;5037404;28;20217;-69
2022/04/03 03:33:29;;;;;;;13.00;11.67;;;;;;;0.32;nan;98226.25;5037878;28;20445;-69
2022/04/03 03:35:55;;;;;;;15.30;13.40;;;;;;;0.26;nan;98230.47;5038057;28;20443;-69
2022/04/03 03:38:22;;;;;;;14.40;12.90;;;;;;;0.23;nan;98224.53;5036894;28;20981;-69
2022/04/03 03:40:48;;;;;;;14.07;12.67;;;;;;;0.32;nan;98224.63;5037275;28;20805;-69
2022/04/03 03:43:15;;;;;;;14.20;12.70;;;;;;;0.28;nan;98228.50;5037923;28;20442;-68
2022/04/03 03:45:41;;;;;;;13.87;12.43;;;;;;;0.37;nan;98230.22;5036600;28;21063;-68
2022/04/03 03:48:10;;;;;;;14.93;12.73;;;;;;;0.33;nan;98225.28;5036483;28;20554;-69
2022/04/03 03:50:37;;;;;;;13.77;11.63;;;;;;;0.39;nan;98229.09;5036954;28;20435;-69
2022/04/03 03:53:03;;;;;;;14.50;11.57;;;;;;;0.51;nan;98234.91;5036952;28;20438;-69
2022/04/03 03:55:29;;;;;;;14.00;11.20;;;;;;;0.38;nan;98235.28;5036908;28;20438;-68
2022/04/03 03:57:56;;;;;;;12.90;10.23;;;;;;;0.50;nan;98234.09;5036514;28;20477;-69
2022/04/03 04:00:22;;;;;;;13.13;11.13;;;;;;;0.37;nan;98243.28;5036926;28;20490;-69
2022/04/03 04:02:49;;;;;;;12.53;11.23;;;;;;;0.35;nan;98237.41;5037601;28;20537;-69
2022/04/03 04:05:15;;;;;;;12.47;11.27;;;;;;;0.22;nan;98246.44;5036546;28;20493;-70
2022/04/03 04:07:43;;;;;;;13.80;12.30;;;;;;;0.33;nan;98237.53;5037407;28;20483;-69
2022/04/03 04:10:12;;;;;;;13.17;10.83;;;;;;;0.21;nan;98248.41;5036700;28;20435;-68
2022/04/03 04:12:40;;;;;;;13.23;11.43;;;;;;;0.18;nan;98254.72;5036294;28;20797;-69
2022/04/03 04:15:07;;;;;;;13.90;12.40;;;;;;;0.31;nan;98249.94;5036633;28;20504;-69
2022/04/03 04:17:40;;;;;;;13.97;12.20;;;;;;;0.28;nan;98252.88;5036178;28;20837;-69
2022/04/03 04:20:12;;;;;;;16.30;11.30;;;;;;;0.31;nan;98256.97;5036227;28;20429;-69
2022/04/03 04:22:39;;;;;;;13.67;11.63;;;;;;;0.21;nan;98259.66;5036173;28;20447;-69
2022/04/03 04:25:06;;;;;;;13.00;11.67;;;;;;;0.16;nan;98256.66;5036387;28;20481;-69
2022/04/03 04:27:33;;;;;;;12.27;10.97;;;;;;;0.22;nan;98268.31;5036043;28;20467;-68
2022/04/03 04:29:59;;;;;;;14.40;11.50;;;;;;;0.27;nan;98261.66;5036411;28;20442;-68
2022/04/03 04:32:26;;;;;;;13.90;11.30;;;;;;;0.24;nan;98264.59;5036305;28;20461;-69
2022/04/03 04:34:52;;;;;;;11.90;10.70;;;;;;;0.27;nan;98271.31;5036169;28;20485;-69
2022/04/03 04:37:19;;;;;;;13.07;10.70;;;;;;;0.35;nan;98268.78;5034987;28;20455;-69
2022/04/03 04:39:46;;;;;;;13.30;10.63;;;;;;;0.31;nan;98267.44;5036171;28;20448;-69
2022/04/03 04:42:14;;;;;;;12.23;10.93;;;;;;;0.32;nan;98278.56;5036141;28;20439;-68
2022/04/03 04:44:41;;;;;;;12.37;10.87;;;;;;;0.27;nan;98277.34;5036059;28;20479;-69
2022/04/03 04:47:08;;;;;;;12.77;11.37;;;;;;;0.28;nan;98274.59;5035658;28;20459;-69
2022/04/03 04:49:34;;;;;;;15.00;11.90;;;;;;;0.27;nan;98273.94;5035920;28;20462;-69
2022/04/03 04:52:01;;;;;;;12.63;9.97;;;;;;;0.27;nan;98277.34;5035716;28;20497;-68
2022/04/03 04:54:27;;;;;;;12.00;10.80;;;;;;;0.22;nan;98279.59;5036057;28;20443;-69
2022/04/03 04:56:55;;;;;;;13.17;11.63;;;;;;;0.22;nan;98282.19;5035201;28;20482;-69
2022/04/03 04:59:21;;;;;;;14.80;11.67;;;;;;;0.18;nan;98286.91;5035576;28;20447;-69
2022/04/03 05:01:48;;;;;;;12.80;11.17;;;;;;;0.27;nan;98287.81;5036237;28;20449;-69
2022/04/03 05:04:14;;;;;;;11.17;10.00;;;;;;;0.27;nan;98300.06;5035617;28;20509;-69
2022/04/03 05:06:41;;;;;;;11.30;10.10;;;;;;;0.24;nan;98291.53;5035222;28;21120;-69
2022/04/03 05:09:07;;;;;;;12.33;10.63;;;;;;;0.17;nan;98295.72;5035609;28;20518;-69
2022/04/03 05:11:36;;;;;;;11.73;10.40;;;;;;;0.18;nan;98294.75;5035375;28;20435;-68
2022/04/03 05:14:03;;;;;;;11.20;9.87;;;;;;;0.22;nan;98305.72;5035528;28;20455;-69
2022/04/03 05:16:30;;;;;;;13.73;10.33;;;;;;;0.26;nan;98293.22;5035452;28;20458;-69
2022/04/03 05:18:56;;;;;;;11.37;10.20;;;;;;;0.21;nan;98304.09;5035485;28;20446;-69
2022/04/03 05:21:23;;;;;;;13.40;10.93;;;;;;;0.26;nan;98308.91;5034943;28;20450;-69
2022/04/03 05:23:50;;;;;;;11.07;9.97;;;;;;;0.30;nan;98308.44;5035680;28;20875;-69
2022/04/03 05:26:17;;;;;;;11.83;10.30;;;;;;;0.18;nan;98315.66;5034878;28;20481;-69
2022/04/03 05:28:44;;;;;;;11.57;10.37;;;;;;;0.13;nan;98308.44;5035293;28;20839;-69
2022/04/03 05:31:11;;;;;;;11.57;10.37;;;;;;;0.18;nan;98312.22;5035205;28;20439;-69
2022/04/03 05:33:37;;;;;;;10.50;9.40;;;;;;;0.31;nan;98317.91;5034874;28;21065;-69
2022/04/03 05:36:04;;;;;;;10.37;8.87;;;;;;;0.32;nan;98320.38;5035012;28;20431;-69
2022/04/03 05:38:31;;;;;;;9.93;8.70;;;;;;;0.24;nan;98317.69;5035368;28;20470;-69
2022/04/03 05:40:58;;;;;;;11.70;10.30;;;;;;;0.28;nan;98320.00;5034966;28;20443;-69
2022/04/03 05:43:25;;;;;;;11.87;9.93;;;;;;;0.18;nan;98323.50;5034873;28;20439;-69
2022/04/03 05:45:51;;;;;;;10.50;9.23;;;;;;;0.35;nan;98323.69;5034477;28;20517;-69
2022/04/03 05:48:17;;;;;;;10.30;9.20;;;;;;;0.37;nan;98329.59;5034506;28;20466;-69
2022/04/03 05:50:44;;;;;;;9.40;8.40;;;;;;;0.43;nan;98326.34;5034999;28;20458;-69
2022/04/03 05:53:12;;;;;;;10.43;8.63;;;;;;;0.47;nan;98320.69;5034719;28;20505;-69
2022/04/03 05:55:38;;;;;;;11.63;9.17;;;;;;;0.52;nan;98323.69;5034800;28;20470;-69
2022/04/03 05:58:05;;;;;;;10.33;9.23;;;;;;;0.45;nan;98327.06;5034313;28;20474;-69
2022/04/03 06:00:31;;;;;;;8.93;7.87;;;;;;;0.50;nan;98330.88;5034313;28;20443;-69
2022/04/03 06:02:59;;;;;;;9.83;8.53;;;;;;;0.40;nan;98335.31;5034254;28;20933;-69
2022/04/03 06:05:28;;;;;;;9.80;8.80;;;;;;;0.59;nan;98334.38;5034455;28;20487;-70
2022/04/03 06:07:54;;;;;;;10.30;8.60;;;;;;;0.49;nan;98347.50;5034413;28;20455;-69
2022/04/03 06:10:22;;;;;;;11.23;8.17;;;;;;;0.62;nan;98345.34;5034536;28;20441;-70
2022/04/03 06:12:53;;;;;;;9.97;8.13;;;;;;;0.69;nan;98356.03;5034330;28;20446;-69
2022/04/03 06:15:19;;;;;;;8.43;7.37;;;;;;;0.79;nan;98351.53;5034044;28;20677;-69
2022/04/03 06:17:49;;;;;;;9.83;7.77;;;;;;;0.67;nan;98353.56;5033852;28;21001;-69
2022/04/03 06:20:15;;;;;;;8.80;7.90;;;;;;;0.62;nan;98353.19;5034254;28;20443;-69
2022/04/03 06:22:41;;;;;;;9.00;7.67;;;;;;;0.81;nan;98345.19;5034135;28;20447;-69
2022/04/03 06:25:08;;;;;;;7.80;7.00;;;;;;;0.56;nan;98353.81;5034072;28;20229;-69
2022/04/03 06:27:35;;;;;;;8.03;7.23;;;;;;;0.68;nan;98357.84;5034043;28;20637;-69
2022/04/03 06:30:01;;;;;;;8.57;7.73;;;;;;;0.84;nan;98365.00;5033784;28;20570;-69
2022/04/03 06:32:29;;;;;;;7.33;5.90;;;;;;;0.66;nan;98372.03;5033929;28;20447;-69
2022/04/03 06:34:55;;;;;;;7.27;6.50;;;;;;;0.83;nan;98371.22;5033691;28;20230;-69
2022/04/03 06:37:22;;;;;;;7.83;7.00;;;;;;;0.94;nan;98373.59;5033807;28;20459;-69
2022/04/03 06:39:48;;;;;;;8.97;5.97;;;;;;;0.99;nan;98377.41;5033812;28;20435;-69
2022/04/03 06:42:15;;;;;;;7.53;6.43;;;;;;;0.97;nan;98381.97;5033557;28;20451;-69
2022/04/03 06:44:42;;;;;;;7.57;6.77;;;;;;;1.02;nan;98382.34;5033711;28;20478;-68
2022/04/03 06:47:08;;;;;;;7.50;6.73;;;;;;;1.04;nan;98380.38;5034249;28;20818;-69
2022/04/03 06:49:35;;;;;;;7.93;6.60;;;;;;;1.11;nan;98383.22;5033401;28;20937;-69
2022/04/03 06:52:02;;;;;;;7.57;5.93;;;;;;;1.32;nan;98384.53;5033761;28;20458;-69
2022/04/03 06:54:28;;;;;;;6.93;6.10;;;;;;;1.30;nan;98388.28;5033759;28;20206;-69
2022/04/03 06:56:54;;;;;;;7.90;6.33;;;;;;;1.17;nan;98396.53;5033430;28;20233;-69
2022/04/03 06:59:21;;;;;;;7.87;6.60;;;;;;;1.32;nan;98388.94;5033628;28;20256;-69
2022/04/03 07:01:47;;;;;;;7.47;5.60;;;;;;;1.47;nan;98393.47;5032582;28;20212;-69
2022/04/03 07:04:14;;;;;;;7.47;6.60;;;;;;;1.29;nan;98400.56;5033344;28;20217;-69
2022/04/03 07:06:40;;;;;;;5.87;5.27;;;;;;;1.43;nan;98404.41;5033369;28;20237;-69
2022/04/03 07:09:06;;;;;;;6.47;5.73;;;;;;;1.04;nan;98400.50;5033068;28;20688;-69
2022/04/03 07:11:33;;;;;;;5.57;4.93;;;;;;;1.27;nan;98399.91;5033167;28;20206;-70
2022/04/03 07:13:59;;;;;;;6.43;5.40;;;;;;;1.27;nan;98407.75;5033090;28;20669;-69
2022/04/03 07:16:25;;;;;;;7.80;5.73;;;;;;;1.38;nan;98398.78;5033318;28;20442;-69
2022/04/03 07:18:52;;;;;;;6.53;5.90;;;;;;;1.24;nan;98409.81;5033373;28;20438;-69
2022/04/03 07:21:18;;;;;;;6.77;5.50;;;;;;;1.06;nan;98409.03;5033152;28;20439;-69
2022/04/03 07:23:44;;;;;;;6.43;5.57;;;;;;;0.90;nan;98411.53;5033236;28;20603;-69
2022/04/03 07:26:11;;;;;;;7.57;5.67;;;;;;;1.03;nan;98415.38;5032786;28;20221;-69
2022/04/03 07:28:37;;;;;;;8.60;5.77;;;;;;;1.30;nan;98411.84;5033047;28;20683;-69
2022/04/03 07:31:04;;;;;;;8.30;6.37;;;;;;;1.28;nan;98411.19;5032867;28;20584;-70
2022/04/03 07:33:30;;;;;;;5.40;4.90;;;;;;;1.30;nan;98417.09;5032988;28;20691;-70
2022/04/03 07:35:57;;;;;;;6.40;5.00;;;;;;;1.48;nan;98413.44;5033307;28;20202;-70
2022/04/03 07:38:23;;;;;;;6.77;5.80;;;;;;;1.63;nan;98425.00;5032861;28;20230;-70
2022/04/03 07:40:50;;;;;;;5.47;4.97;;;;;;;1.75;nan;98423.78;5033232;28;20206;-70
2022/04/03 07:43:17;;;;;;;7.40;5.93;;;;;;;1.84;nan;98432.50;5033030;28;20202;-70
2022/04/03 07:45:44;;;;;;;7.17;5.43;;;;;;;1.69;nan;98434.06;5033020;28;20236;-69
2022/04/03 07:48:11;;;;;;;5.97;5.37;;;;;;;1.68;nan;98440.28;5033013;28;20248;-69
2022/04/03 07:50:38;;;;;;;7.57;5.40;;;;;;;1.67;nan;98447.31;5032853;28;20739;-70
2022/04/03 07:53:06;;;;;;;7.23;5.47;;;;;;;2.03;nan;98448.84;5033064;28;20612;-69
2022/04/03 07:55:32;;;;;;;6.27;5.37;;;;;;;1.94;nan;98457.63;5032759;28;20206;-70
2022/04/03 07:57:59;;;;;;;9.37;5.63;;;;;;;1.74;nan;98453.59;5032641;28;20248;-70
2022/04/03 08:00:25;;;;;;;5.87;5.10;;;;;;;1.80;nan;98460.81;5032949;28;20210;-69
2022/04/03 08:02:51;;;;;;;6.00;4.70;;;;;;;1.27;nan;98459.28;5032614;28;20210;-70
2022/04/03 08:05:18;;;;;;;5.77;4.87;;;;;;;1.56;nan;98455.44;5032823;28;20230;-70
2022/04/03 08:07:46;;;;;;;5.53;4.93;;;;;;;1.46;nan;98459.13;5032803;28;20240;-70
2022/04/03 08:10:18;;;;;;;5.90;4.90;;;;;;;1.75;nan;98462.28;5032720;28;20217;-70
2022/04/03 08:12:46;;;;;;;7.50;5.47;;;;;;;1.98;nan;98466.84;5035097;28;20209;-70
2022/04/03 08:15:14;;;;;;;9.17;4.93;;;;;;;1.98;nan;98464.22;5036447;28;20266;-70
2022/04/03 08:17:43;;;;;;;5.53;4.93;;;;;;;1.84;nan;98463.97;5036282;28;20708;-70
2022/04/03 08:20:13;;;;;;;5.40;4.90;;;;;;;1.95;nan;98459.31;5036223;28;20275;-70
2022/04/03 08:22:40;;;;;;;5.33;4.73;;;;;;;2.12;nan;98475.94;5036619;28;20210;-71
2022/04/03 08:25:08;;;;;;;5.33;4.83;;;;;;;2.00;nan;98472.78;5036053;28;20221;-70
2022/04/03 08:27:44;;;;;;;5.10;4.53;;;;;;;2.34;nan;98476.22;5036224;28;20225;-70
2022/04/03 08:30:22;;;;;;;5.80;5.30;;;;;;;1.79;nan;98474.09;5036291;28;20567;-70
2022/04/03 08:32:49;;;;;;;6.20;4.97;;;;;;;2.07;nan;98472.97;5036374;28;20201;-70
2022/04/03 08:35:17;;;;;;;5.53;5.03;;;;;;;1.74;nan;98478.97;5036983;28;20202;-70
2022/04/03 08:37:44;;;;;;;6.10;4.60;;;;;;;2.03;nan;98482.13;5036154;28;20225;-70
2022/04/03 08:40:13;;;;;;;5.43;4.80;;;;;;;1.94;nan;98475.97;5036020;28;20551;-70
2022/04/03 08:42:40;;;;;;;4.73;4.27;;;;;;;2.45;nan;98485.59;5035548;28;20206;-70
2022/04/03 08:45:11;;;;;;;5.73;4.77;;;;;;;2.53;nan;98483.03;5035782;28;20233;-70
2022/04/03 08:48:08;;;;;;;4.50;4.10;;;;;;;2.17;nan;98482.34;5035471;28;20279;-70
2022/04/03 08:50:37;;;;;;;5.83;4.20;;;;;;;2.30;nan;98487.19;5027362;28;20213;-70
2022/04/03 08:53:05;;;;;;;5.20;4.70;;;;;;;2.47;nan;98488.88;5035564;28;20213;-70
2022/04/03 08:55:32;;;;;;;4.97;4.17;;;;;;;2.25;nan;98487.63;5035691;28;20202;-69
2022/04/03 08:58:00;;;;;;;5.37;3.87;;;;;;;2.40;nan;98490.50;5035357;28;20233;-69
2022/04/03 09:00:26;;;;;;;5.17;4.20;;;;;;;2.02;nan;98493.56;5035432;28;20305;-69
2022/04/03 09:02:53;;;;;;;4.20;3.80;;;;;;;2.11;nan;98493.47;5036382;28;20202;-69
2022/04/03 09:05:20;;;;;;;7.47;4.77;;;;;;;1.86;nan;98488.22;5035329;28;20723;-69
2022/04/03 09:08:00;;;;;;;4.67;4.10;;;;;;;1.82;nan;98494.75;5035245;28;20233;-69
2022/04/03 09:10:27;;;;;;;6.20;5.20;;;;;;;1.93;nan;98490.06;5035698;28;20190;-69
2022/04/03 09:12:53;;;;;;;5.57;4.43;;;;;;;1.92;nan;98493.69;5035143;28;20232;-69
2022/04/03 09:15:21;;;;;;;4.90;4.40;;;;;;;1.93;nan;98490.06;5035252;28;20202;-69
2022/04/03 09:17:52;;;;;;;5.53;4.33;;;;;;;1.73;nan;98491.28;5035395;28;20244;-69
2022/04/03 09:20:27;;;;;;;5.40;4.00;;;;;;;1.78;nan;98493.41;5035276;28;20190;-70
2022/04/03 09:22:59;;;;;;;5.47;4.10;;;;;;;2.10;nan;98491.81;5034578;28;20189;-69
2022/04/03 09:25:34;;;;;;;4.70;3.93;;;;;;;2.02;nan;98493.56;5034572;28;20210;-69
2022/04/03 09:28:05;;;;;;;4.23;3.50;;;;;;;2.37;nan;98499.50;5034964;28;20221;-70
2022/04/03 09:30:37;;;;;;;7.33;3.67;;;;;;;2.52;nan;98497.13;5035277;28;20194;-69
2022/04/03 09:33:06;;;;;;;3.50;3.20;;;;;;;2.73;nan;98492.25;5035237;28;20199;-70
2022/04/03 09:35:53;;;;;;;5.03;4.00;;;;;;;2.45;nan;98493.47;5035630;28;20209;-70
2022/04/03 09:38:20;;;;;;;5.33;3.60;;;;;;;2.44;nan;98503.13;5034674;28;20232;-70
2022/04/03 09:40:48;;;;;;;5.40;3.60;;;;;;;2.76;nan;98499.84;5034932;28;20317;-70
2022/04/03 09:43:23;;;;;;;4.23;3.80;;;;;;;2.39;nan;98504.59;5034892;28;20229;-70
2022/04/03 09:45:59;;;;;;;5.37;3.87;;;;;;;2.17;nan;98498.09;5034628;28;20680;-70
2022/04/03 09:48:29;;;;;;;4.83;3.93;;;;;;;2.35;nan;98500.66;5034445;28;20739;-70
2022/04/03 09:50:57;;;;;;;4.10;3.70;;;;;;;2.19;nan;98501.38;5034825;28;20201;-70
2022/04/03 09:53:24;;;;;;;5.23;4.00;;;;;;;2.22;nan;98505.50;5034469;28;20206;-70
2022/04/03 09:55:51;;;;;;;4.80;4.10;;;;;;;2.19;nan;98496.16;5034356;28;20212;-70
2022/04/03 09:58:17;;;;;;;4.10;3.67;;;;;;;1.93;nan;98508.44;5034137;28;20233;-70
2022/04/03 10:00:44;;;;;;;4.27;3.67;;;;;;;1.96;nan;98504.69;5034445;28;20206;-70
2022/04/03 10:03:12;;;;;;;4.57;4.07;;;;;;;1.95;nan;98503.03;5033954;28;20225;-70
2022/04/03 10:05:40;;;;;;;4.70;4.20;;;;;;;1.81;nan;98514.88;5034367;28;20279;-70
2022/04/03 10:08:07;;;;;;;3.47;3.17;;;;;;;1.69;nan;98507.44;5034262;28;20237;-70
2022/04/03 10:10:35;;;;;;;4.60;3.93;;;;;;;1.64;nan;98507.06;5034373;28;20213;-70
2022/04/03 10:13:03;;;;;;;5.60;4.47;;;;;;;1.54;nan;98506.34;5034183;28;20572;-70
2022/04/03 10:15:30;;;;;;;5.13;4.40;;;;;;;1.72;nan;98507.13;5034288;28;20321;-70
2022/04/03 10:17:56;;;;;;;7.03;3.97;;;;;;;1.56;nan;98501.75;5033906;28;20226;-70
2022/04/03 10:20:29;;;;;;;4.40;4.00;;;;;;;1.73;nan;98508.78;5034133;28;20231;-70
2022/04/03 10:23:01;;;;;;;4.13;3.73;;;;;;;1.78;nan;98506.53;5033771;28;20217;-70
2022/04/03 10:25:32;;;;;;;4.03;3.30;;;;;;;1.82;nan;98507.88;5033933;28;20200;-69
2022/04/03 10:28:02;;;;;;;5.07;3.93;;;;;;;2.02;nan;98510.13;5034068;28;20237;-70
2022/04/03 10:30:42;;;;;;;6.43;4.30;;;;;;;2.10;nan;98504.94;5034033;28;20198;-70
2022/04/03 10:33:19;;;;;;;6.00;3.87;;;;;;;2.08;nan;98506.06;5033419;28;20691;-69
2022/04/03 10:35:49;;;;;;;4.53;3.90;;;;;;;2.22;nan;98498.44;5033351;28;20190;-69
2022/04/03 10:38:15;;;;;;;6.40;4.23;;;;;;;2.40;nan;98501.00;5033228;28;20226;-69
2022/04/03 10:40:58;;;;;;;5.20;3.60;;;;;;;2.60;nan;98503.22;5033681;28;20260;-69
2022/04/03 10:43:30;;;;;;;4.53;3.83;;;;;;;2.52;nan;98505.81;5033247;28;20649;-69
2022/04/03 10:45:56;;;;;;;5.07;4.07;;;;;;;2.65;nan;98494.84;5033512;28;20221;-69
2022/04/03 10:48:26;;;;;;;4.70;4.13;;;;;;;2.70;nan;98492.56;5034052;28;20225;-70
2022/04/03 10:51:04;;;;;;;6.27;3.77;;;;;;;2.87;nan;98492.47;5033385;28;20244;-70
2022/04/03 10:53:33;;;;;;;4.70;3.43;;;;;;;3.22;nan;98496.66;5033672;28;20213;-70
2022/04/03 10:56:07;;;;;;;4.10;3.57;;;;;;;3.27;nan;98494.34;5033610;28;20202;-70
2022/04/03 10:58:46;;;;;;;5.37;3.73;;;;;;;3.80;nan;98494.72;5033013;28;20261;-70
2022/04/03 11:01:27;;;;;;;4.60;3.80;;;;;;;3.88;nan;98484.19;5033407;28;20197;-70
2022/04/03 11:03:57;;;;;;;3.73;3.30;;;;;;;3.82;nan;98477.78;5032897;28;20599;-69
2022/04/03 11:06:28;;;;;;;3.43;2.90;;;;;;;3.88;nan;98487.63;5033211;28;20217;-70
2022/04/03 11:09:00;;;;;;;2.80;2.30;;;;;;;3.51;nan;98487.31;5033108;28;20541;-70
2022/04/03 11:11:36;;;;;;;3.13;2.53;;;;;;;3.63;nan;98488.63;5033009;28;20191;-69
2022/04/03 11:14:03;;;;;;;2.50;2.30;;;;;;;3.64;nan;98485.03;5033838;28;20186;-70
2022/04/03 11:16:29;;;;;;;4.10;2.30;;;;;;;4.04;nan;98477.09;5032633;28;20661;-70
2022/04/03 11:19:03;;;;;;;2.63;2.30;;;;;;;3.98;nan;98479.56;5032986;28;20206;-70
2022/04/03 11:21:35;;;;;;;2.40;2.20;;;;;;;3.71;nan;98477.28;5033378;28;20186;-70
2022/04/03 11:24:11;;;;;;;4.30;2.47;;;;;;;3.63;nan;98479.91;5033034;28;20221;-70
2022/04/03 11:26:39;;;;;;;4.03;2.77;;;;;;;3.75;nan;98475.97;5033050;28;20233;-70
2022/04/03 11:29:09;;;;;;;4.03;2.50;;;;;;;3.51;nan;98478.59;5032961;28;20221;-70
2022/04/03 11:31:39;;;;;;;2.90;2.70;;;;;;;3.64;nan;98478.94;5033142;28;20287;-70
2022/04/03 11:34:06;;;;;;;3.10;2.57;;;;;;;3.39;nan;98483.34;5033574;28;20256;-70
2022/04/03 11:36:33;;;;;;;3.57;2.87;;;;;;;3.47;nan;98474.66;5033155;28;20222;-70
2022/04/03 11:39:01;;;;;;;2.53;2.30;;;;;;;3.63;nan;98483.38;5032779;28;20214;-70
2022/04/03 11:41:35;;;;;;;6.47;2.93;;;;;;;3.55;nan;98477.28;5032818;28;20563;-70
2022/04/03 11:44:07;;;;;;;6.10;2.80;;;;;;;3.58;nan;98482.22;5033658;28;20186;-70
2022/04/03 11:46:43;;;;;;;2.40;2.20;;;;;;;3.82;nan;98475.16;5033310;28;20268;-70
2022/04/03 11:49:12;;;;;;;2.60;2.20;;;;;;;3.58;nan;98476.97;5037069;28;20190;-70
2022/04/03 11:51:39;;;;;;;3.50;2.43;;;;;;;3.33;nan;98472.69;5037091;28;20209;-70
2022/04/03 11:54:05;;;;;;;7.03;3.13;;;;;;;3.35;nan;98473.34;5036728;28;20695;-70